Time;durP1;ratioP1;P1;durP2;ratioP2;P2;SDS_P1;SDS_P2;PMS_P1;PMS_P2;Temp;Humidity;BMP_temperature;BMP_pressure;BME280_temperature;BME280_humidity;BME280_pressure;Samples;Min_cycle;Max_cycle;Signal;HPM_P1;HPM_P2
2022/04/28 00:00:28;;;;;;;15.93;8.63;;;;;;;3.73;84.00;102650.66;10438535;28;20090;-74
2022/04/28 00:05:29;;;;;;;19.35;8.65;;;;;;;3.72;84.24;102646.25;10441371;28;20529;-74
2022/04/28 00:10:29;;;;;;;15.35;7.82;;;;;;;3.66;84.35;102655.97;10458406;28;20037;-74
2022/04/28 00:15:30;;;;;;;14.57;7.93;;;;;;;3.58;84.51;102650.00;10459961;28;20120;-74
2022/04/28 00:20:31;;;;;;;12.30;8.02;;;;;;;3.46;84.43;102652.22;10424384;28;20086;-75
2022/04/28 00:25:32;;;;;;;15.18;8.82;;;;;;;3.43;84.86;102651.88;10445387;28;20037;-74
2022/04/28 00:30:37;;;;;;;17.27;10.15;;;;;;;3.47;85.28;102647.97;10442013;28;20036;-74
2022/04/28 00:35:38;;;;;;;12.65;7.53;;;;;;;3.45;85.60;102639.13;10440688;28;20044;-74
2022/04/28 00:40:39;;;;;;;17.73;10.32;;;;;;;3.38;85.79;102645.31;10438161;28;20131;-74
2022/04/28 00:45:39;;;;;;;20.58;10.90;;;;;;;3.36;86.21;102640.00;10457931;28;20086;-74
2022/04/28 00:50:43;;;;;;;20.60;10.25;;;;;;;3.25;86.46;102642.19;10438488;28;20480;-74
2022/04/28 00:55:44;;;;;;;16.20;9.65;;;;;;;3.19;86.56;102647.63;10441036;28;20036;-74
2022/04/28 01:00:44;;;;;;;22.83;9.80;;;;;;;3.11;87.17;102643.31;10418779;28;20072;-75
2022/04/28 01:05:45;;;;;;;22.52;10.98;;;;;;;3.00;86.68;102645.69;10456653;28;20174;-74
2022/04/28 01:10:45;;;;;;;15.68;10.20;;;;;;;2.99;86.79;102645.50;10456291;28;20029;-74
2022/04/28 01:15:48;;;;;;;17.00;9.75;;;;;;;2.90;86.83;102641.19;10455920;28;20076;-74
2022/04/28 01:20:48;;;;;;;16.75;10.65;;;;;;;2.85;87.07;102641.47;10456569;28;20087;-74
2022/04/28 01:25:49;;;;;;;19.52;10.13;;;;;;;2.85;87.34;102644.03;10420072;28;20059;-74
2022/04/28 01:30:49;;;;;;;18.30;10.98;;;;;;;2.83;87.36;102645.53;10438802;28;20029;-74
2022/04/28 01:35:50;;;;;;;20.17;10.93;;;;;;;2.72;87.30;102640.13;10453368;28;20059;-74
2022/04/28 01:40:50;;;;;;;16.10;10.13;;;;;;;2.66;88.04;102647.22;10451911;28;20551;-74
2022/04/28 01:45:51;;;;;;;24.83;10.50;;;;;;;2.58;88.12;102642.91;10438610;28;20036;-74
2022/04/28 01:56:10;;;;;;;18.80;10.73;;;;;;;2.58;88.61;102646.38;10455463;28;20032;-74
2022/04/28 02:01:11;;;;;;;24.20;12.45;;;;;;;2.49;88.13;102648.91;10455285;28;20068;-74
2022/04/28 02:06:11;;;;;;;19.65;10.13;;;;;;;2.47;88.13;102647.81;10452270;28;20084;-74
2022/04/28 02:11:12;;;;;;;28.52;11.80;;;;;;;2.44;89.05;102649.13;10453657;28;20036;-74
2022/04/28 02:16:12;;;;;;;18.42;10.45;;;;;;;2.30;88.46;102653.72;10436425;28;20123;-74
2022/04/28 02:21:13;;;;;;;22.33;11.98;;;;;;;2.24;89.24;102653.03;10435441;28;20472;-74
2022/04/28 02:26:13;;;;;;;25.38;12.50;;;;;;;2.21;89.35;102657.88;10437307;28;20537;-74
2022/04/28 02:31:14;;;;;;;18.20;9.52;;;;;;;2.15;88.96;102658.13;10432973;28;20079;-74
2022/04/28 02:36:14;;;;;;;20.25;12.25;;;;;;;2.13;88.83;102651.88;10435826;28;20053;-74
2022/04/28 02:41:20;;;;;;;16.73;11.55;;;;;;;2.12;89.31;102654.28;10451646;28;20063;-74
2022/04/28 02:46:20;;;;;;;19.67;12.25;;;;;;;2.09;89.73;102652.28;10436945;28;20033;-74
2022/04/28 02:51:21;;;;;;;16.70;11.30;;;;;;;2.07;90.09;102653.78;10434941;28;20063;-74
2022/04/28 02:56:21;;;;;;;19.75;11.45;;;;;;;2.02;89.31;102654.94;10452970;28;20064;-75
2022/04/28 03:01:25;;;;;;;19.65;12.45;;;;;;;1.99;90.02;102650.31;10451780;28;20032;-74
2022/04/28 03:11:45;;;;;;;23.95;13.77;;;;;;;1.94;90.50;102636.00;10438080;28;20061;-74
2022/04/28 03:16:45;;;;;;;24.60;12.85;;;;;;;1.93;90.13;102644.47;10453860;28;20122;-74
2022/04/28 03:21:46;;;;;;;24.70;15.18;;;;;;;1.93;91.21;102656.50;10435172;28;20029;-74
2022/04/28 03:26:46;;;;;;;25.83;13.75;;;;;;;1.79;91.21;102662.69;10443575;28;20059;-74
2022/04/28 03:31:47;;;;;;;26.58;13.55;;;;;;;1.71;91.04;102655.00;10441766;28;20060;-74
2022/04/28 03:36:50;;;;;;;27.15;15.25;;;;;;;1.69;91.06;102658.16;10460128;28;20068;-75
2022/04/28 03:41:51;;;;;;;28.27;14.63;;;;;;;1.57;91.23;102655.09;10442803;28;20468;-74
2022/04/28 03:46:51;;;;;;;26.25;15.27;;;;;;;1.56;91.49;102648.13;10459793;28;20037;-74
2022/04/28 03:51:52;;;;;;;23.85;14.40;;;;;;;1.54;92.08;102647.03;10437569;28;20504;-74
2022/04/28 03:56:52;;;;;;;28.30;16.85;;;;;;;1.45;91.84;102659.81;10441623;28;20068;-74
2022/04/28 04:01:53;;;;;;;33.22;16.73;;;;;;;1.50;92.34;102673.22;10443838;28;20021;-75
2022/04/28 04:06:53;;;;;;;28.63;17.02;;;;;;;1.54;92.45;102672.84;10457738;28;20485;-73
2022/04/28 04:11:54;;;;;;;24.50;16.63;;;;;;;1.53;92.38;102676.16;10441586;28;20040;-74
2022/04/28 04:16:55;;;;;;;27.65;16.95;;;;;;;1.49;92.04;102681.72;10453262;28;20052;-74
2022/04/28 04:21:58;;;;;;;25.85;15.80;;;;;;;1.53;92.21;102686.47;10455345;28;20035;-74
2022/04/28 04:27:00;;;;;;;28.35;17.65;;;;;;;1.50;92.46;102678.38;10400765;28;20068;-74
2022/04/28 04:32:18;;;;;;;23.60;15.77;;;;;;;1.62;92.83;102682.34;10427139;28;20072;-77
2022/04/28 04:37:19;;;;;;;31.30;17.10;;;;;;;1.63;92.54;102684.19;10419294;28;20029;-76
2022/04/28 04:42:19;;;;;;;24.63;14.75;;;;;;;1.68;92.39;102697.63;10434440;28;20380;-74
2022/04/28 04:47:20;;;;;;;31.05;18.80;;;;;;;1.80;93.19;102690.34;10438964;28;20182;-74
2022/04/28 04:52:20;;;;;;;28.00;17.58;;;;;;;1.94;93.16;102697.97;10402911;28;20120;-74
2022/04/28 04:57:21;;;;;;;29.08;17.20;;;;;;;2.10;93.40;102705.78;10426210;28;20031;-73
2022/04/28 05:02:23;;;;;;;29.83;16.33;;;;;;;2.37;93.60;102706.06;10456071;28;20059;-74
2022/04/28 05:07:31;;;;;;;33.50;20.58;;;;;;;2.68;94.30;102709.44;10461803;28;20059;-74
2022/04/28 05:12:31;;;;;;;28.45;15.73;;;;;;;3.01;93.59;102709.59;10468800;28;20139;-74
2022/04/28 05:17:32;;;;;;;29.83;16.60;;;;;;;3.31;93.11;102715.28;10488132;28;20047;-74
2022/04/28 05:22:33;;;;;;;27.52;14.20;;;;;;;3.54;91.92;102722.94;10484023;28;20148;-74
2022/04/28 05:27:33;;;;;;;28.08;13.63;;;;;;;3.87;90.36;102714.28;10495014;28;20408;-74
2022/04/28 05:32:34;;;;;;;23.17;13.82;;;;;;;4.33;87.81;102717.22;10493305;28;20067;-73
2022/04/28 05:37:35;;;;;;;17.83;11.60;;;;;;;4.72;85.92;102729.81;10498471;28;20056;-74
2022/04/28 05:47:54;;;;;;;14.77;10.10;;;;;;;8.06;78.05;102727.19;10475157;28;20400;-74
2022/04/28 05:52:55;;;;;;;17.15;8.30;;;;;;;10.27;66.40;102725.38;10479666;28;20114;-74
2022/04/28 05:57:59;;;;;;;17.42;9.10;;;;;;;11.75;57.42;102718.97;10494590;28;20052;-74
2022/04/28 06:02:59;;;;;;;12.88;8.35;;;;;;;12.39;54.36;102727.03;10478676;28;20047;-74
2022/04/28 06:08:00;;;;;;;13.30;8.53;;;;;;;13.16;51.35;102735.72;10438881;28;20050;-74
2022/04/28 06:13:03;;;;;;;14.38;9.10;;;;;;;14.36;48.26;102731.09;10430196;28;20111;-76
2022/04/28 06:18:03;;;;;;;13.48;8.32;;;;;;;14.55;48.13;102733.13;10435008;28;20040;-74
2022/04/28 06:23:04;;;;;;;14.43;8.65;;;;;;;15.44;45.36;102736.63;10432890;28;20480;-76
2022/04/28 06:28:05;;;;;;;15.80;8.82;;;;;;;15.35;46.44;102746.63;10433534;28;20385;-77
2022/04/28 06:33:08;;;;;;;13.27;9.02;;;;;;;16.46;42.22;102738.72;10424838;28;20029;-74
2022/04/28 06:38:08;;;;;;;19.48;9.02;;;;;;;16.36;43.52;102749.63;10452425;28;20025;-74
2022/04/28 06:43:08;;;;;;;12.25;10.15;;;;;;;17.42;39.53;102748.94;10435084;28;20103;-74
2022/04/28 06:48:09;;;;;;;13.80;9.17;;;;;;;17.18;40.63;102761.81;10447494;28;20032;-74
2022/04/28 06:53:09;;;;;;;19.23;10.63;;;;;;;17.41;41.30;102759.41;10438219;28;20040;-75
2022/04/28 06:58:10;;;;;;;16.80;9.77;;;;;;;18.00;39.89;102763.19;10447701;28;20102;-75
2022/04/28 07:03:11;;;;;;;18.50;11.07;;;;;;;18.71;38.32;102765.50;10446627;28;20679;-77
2022/04/28 07:08:11;;;;;;;14.57;8.57;;;;;;;19.10;35.95;102771.59;10467947;28;20040;-86
2022/04/28 07:13:14;;;;;;;15.02;10.02;;;;;;;18.61;37.84;102773.88;10489112;28;20040;-76
2022/04/28 07:18:15;;;;;;;12.23;9.77;;;;;;;18.95;37.10;102774.47;10490645;28;20032;-75
2022/04/28 07:23:16;;;;;;;16.42;10.55;;;;;;;19.79;36.84;102777.13;10488111;28;20052;-75
2022/04/28 07:28:16;;;;;;;16.53;8.47;;;;;;;20.18;36.43;102775.09;10457827;28;20128;-75
2022/04/28 07:33:17;;;;;;;19.60;12.40;;;;;;;20.56;35.50;102780.03;10489106;28;20056;-75
2022/04/28 07:38:17;;;;;;;14.17;8.97;;;;;;;20.85;33.59;102782.84;10483031;28;20103;-76
2022/04/28 07:43:18;;;;;;;15.67;9.80;;;;;;;21.00;33.94;102790.50;10493730;28;20112;-76
2022/04/28 07:48:19;;;;;;;20.57;11.67;;;;;;;21.00;34.17;102788.72;10489519;28;20119;-76
2022/04/28 07:53:20;;;;;;;18.77;9.13;;;;;;;21.42;34.33;102787.47;10492035;28;20028;-76
2022/04/28 07:58:21;;;;;;;13.48;9.30;;;;;;;21.80;32.77;102790.53;10494176;28;20475;-76
2022/04/28 08:03:21;;;;;;;15.00;9.87;;;;;;;22.10;32.82;102789.66;10494856;28;20048;-76
2022/04/28 08:08:22;;;;;;;12.57;10.37;;;;;;;22.16;32.99;102804.91;10455463;28;20084;-74
2022/04/28 08:13:22;;;;;;;21.70;10.37;;;;;;;22.53;31.30;102813.16;10427265;28;20112;-76
2022/04/28 08:18:24;;;;;;;17.80;10.40;;;;;;;23.20;30.54;102817.63;10441798;28;20540;-76
2022/04/28 08:23:24;;;;;;;14.05;11.10;;;;;;;23.53;31.39;102812.28;10441584;28;20040;-76
2022/04/28 08:28:25;;;;;;;15.50;9.53;;;;;;;23.30;30.85;102822.38;10460529;28;20388;-76
2022/04/28 08:33:25;;;;;;;17.30;10.43;;;;;;;22.92;32.10;102825.81;10440928;28;20021;-76
2022/04/28 08:38:27;;;;;;;15.97;10.77;;;;;;;23.46;30.29;102821.91;10459162;28;20028;-77
2022/04/28 08:43:29;;;;;;;12.65;10.48;;;;;;;22.80;32.04;102826.38;10459564;28;20037;-76
2022/04/28 08:48:29;;;;;;;20.40;11.13;;;;;;;22.84;31.51;102822.91;10425680;28;20045;-76
2022/04/28 08:53:30;;;;;;;19.47;10.60;;;;;;;22.94;30.88;102826.75;10424482;28;20450;-76
2022/04/28 08:58:31;;;;;;;14.93;9.67;;;;;;;23.18;31.01;102823.81;10440238;28;20094;-76
2022/04/28 09:03:31;;;;;;;18.00;9.43;;;;;;;23.00;30.76;102834.94;10458798;28;20124;-77
2022/04/28 09:08:31;;;;;;;24.63;9.97;;;;;;;23.20;31.69;102833.66;10455789;28;20114;-76
2022/04/28 09:18:54;;;;;;;15.63;8.35;;;;;;;22.29;33.75;102830.22;10433084;28;20029;-76
2022/04/28 09:23:54;;;;;;;16.00;9.73;;;;;;;23.09;31.33;102820.03;10454031;28;20112;-77
2022/04/28 09:28:55;;;;;;;14.90;10.87;;;;;;;23.31;31.26;102834.88;10446013;28;20585;-78
2022/04/28 09:33:55;;;;;;;12.47;8.23;;;;;;;23.20;30.01;102834.56;10418914;28;20056;-76
2022/04/28 09:38:56;;;;;;;14.27;10.13;;;;;;;23.49;30.95;102834.44;10431354;28;20100;-76
2022/04/28 09:43:56;;;;;;;11.50;9.30;;;;;;;23.29;29.23;102826.81;10389983;28;20116;-76
2022/04/28 09:48:57;;;;;;;14.03;9.07;;;;;;;22.25;32.31;102820.31;10416443;28;20064;-77
2022/04/28 09:53:58;;;;;;;17.27;10.30;;;;;;;22.79;31.33;102831.69;10413020;28;20124;-77
2022/04/28 09:58:59;;;;;;;16.57;8.57;;;;;;;24.37;27.79;102811.53;10415759;28;20041;-76
2022/04/28 10:04:00;;;;;;;20.40;10.80;;;;;;;24.84;29.53;102813.34;10392811;28;20296;-76
2022/04/28 10:09:03;;;;;;;17.67;11.13;;;;;;;24.96;28.17;102806.44;10414085;28;20044;-76
2022/04/28 10:14:04;;;;;;;19.70;9.63;;;;;;;25.62;26.89;102812.03;10428750;28;20033;-78
2022/04/28 10:19:09;;;;;;;;;;;;;;;24.89;26.87;102800.06;10448968;28;20476;-77
2022/04/28 10:34:59;;;;;;;14.82;11.45;;;;;;;25.30;26.99;102805.25;10398487;28;20034;-77
2022/04/28 10:40:00;;;;;;;15.40;11.00;;;;;;;24.59;29.66;102802.13;10395506;28;20038;-76
2022/04/28 10:45:04;;;;;;;18.10;11.00;;;;;;;24.89;27.40;102800.97;10394662;28;20032;-76
2022/04/28 10:50:24;;;;;;;16.52;11.23;;;;;;;24.52;29.81;102799.31;10413720;28;20049;-76
2022/04/28 10:55:33;;;;;;;17.52;11.63;;;;;;;24.89;29.13;102798.28;10436061;28;20026;-75
2022/04/28 11:00:34;;;;;;;18.50;12.05;;;;;;;24.05;30.08;102793.91;10426739;28;20040;-74
2022/04/28 11:05:38;;;;;;;18.95;12.63;;;;;;;24.63;29.94;102795.97;10419449;28;20049;-75
2022/04/28 11:11:01;;;;;;;16.08;11.57;;;;;;;25.28;27.77;102782.91;10420541;28;20404;-76
2022/04/28 11:16:02;;;;;;;25.73;11.75;;;;;;;24.45;29.82;102784.91;10433370;28;20041;-76
2022/04/28 11:21:03;;;;;;;15.53;11.20;;;;;;;25.13;27.69;102779.97;10451298;28;20029;-76
2022/04/28 11:26:04;;;;;;;16.13;11.93;;;;;;;25.24;28.51;102773.00;10432917;28;20098;-75
2022/04/28 11:31:13;;;;;;;14.83;10.70;;;;;;;23.86;29.79;102778.28;10433557;28;20056;-74
2022/04/28 11:36:24;;;;;;;16.77;11.43;;;;;;;25.53;29.15;102764.56;10434634;28;20044;-74
2022/04/28 11:41:35;;;;;;;16.85;11.82;;;;;;;25.35;27.33;102767.81;10408698;28;20036;-74
2022/04/28 11:46:41;;;;;;;16.73;10.90;;;;;;;24.73;29.89;102773.00;10395116;28;20040;-74
2022/04/28 11:51:42;;;;;;;17.88;10.98;;;;;;;25.56;29.08;102774.41;10424322;28;20033;-75
2022/04/28 11:56:42;;;;;;;15.43;11.73;;;;;;;24.85;28.82;102764.28;10422206;28;20108;-74
2022/04/28 12:01:44;;;;;;;17.97;12.57;;;;;;;25.32;28.43;102762.41;10441819;28;20071;-74
2022/04/28 12:06:48;;;;;;;15.27;12.15;;;;;;;24.85;27.75;102766.97;10451549;28;20500;-75
2022/04/28 12:22:31;;;;;;;17.77;12.05;;;;;;;25.22;27.04;102758.69;10459666;28;20025;-74
2022/04/28 12:27:43;;;;;;;15.07;11.18;;;;;;;25.42;27.65;102753.63;10441387;28;20446;-75
2022/04/28 12:32:45;;;;;;;15.18;11.48;;;;;;;24.88;27.98;102758.09;10439439;28;20073;-74
2022/04/28 12:37:46;;;;;;;13.23;10.30;;;;;;;25.34;27.24;102749.94;10424534;28;20124;-74
2022/04/28 12:42:48;;;;;;;19.47;12.03;;;;;;;25.51;26.48;102743.06;10439405;28;20455;-75
2022/04/28 12:47:50;;;;;;;15.40;10.82;;;;;;;24.99;26.90;102748.47;10434206;28;20412;-75
2022/04/28 12:52:50;;;;;;;16.52;11.23;;;;;;;24.84;26.25;102748.22;10411702;28;20032;-74
2022/04/28 12:57:52;;;;;;;18.27;13.73;;;;;;;24.18;28.97;102738.00;10436343;28;20029;-74
2022/04/28 13:02:53;;;;;;;22.65;12.32;;;;;;;24.57;29.88;102728.94;10416514;28;20040;-75
2022/04/28 13:07:53;;;;;;;14.53;11.27;;;;;;;24.03;28.73;102719.88;10456780;28;20083;-74
2022/04/28 13:12:54;;;;;;;18.67;11.67;;;;;;;23.97;29.88;102725.06;10453580;28;20052;-74
2022/04/28 13:17:54;;;;;;;17.42;11.40;;;;;;;23.93;29.63;102724.06;10420124;28;20064;-74
2022/04/28 13:22:55;;;;;;;15.15;11.23;;;;;;;23.77;29.69;102717.50;10435664;28;20035;-76
2022/04/28 13:27:55;;;;;;;20.73;12.00;;;;;;;23.98;26.92;102711.69;10428754;28;20037;-75
2022/04/28 13:32:56;;;;;;;16.63;12.88;;;;;;;24.12;28.95;102700.41;10455079;28;20028;-76
2022/04/28 13:37:56;;;;;;;16.93;11.33;;;;;;;24.02;29.22;102700.22;10456324;28;20071;-77
2022/04/28 13:42:57;;;;;;;15.17;10.23;;;;;;;24.13;28.39;102688.84;10415704;28;20045;-75
2022/04/28 13:47:57;;;;;;;19.20;10.83;;;;;;;24.00;29.49;102693.94;10453951;28;20079;-75
2022/04/28 13:52:58;;;;;;;14.00;10.80;;;;;;;24.11;27.88;102688.84;10421286;28;20142;-76
2022/04/28 13:57:58;;;;;;;21.93;10.57;;;;;;;24.58;26.72;102682.56;10438290;28;20480;-76
2022/04/28 14:02:59;;;;;;;13.63;9.03;;;;;;;24.25;26.85;102675.72;10420463;28;20031;-76
2022/04/28 14:08:00;;;;;;;11.63;9.30;;;;;;;24.46;25.25;102669.88;10481888;28;20492;-77
2022/04/28 14:13:00;;;;;;;15.20;9.60;;;;;;;24.32;26.99;102668.72;10490485;28;20064;-76
2022/04/28 14:18:01;;;;;;;14.23;8.73;;;;;;;24.12;26.22;102665.66;10495990;28;20094;-75
2022/04/28 14:23:01;;;;;;;13.63;8.80;;;;;;;24.19;26.07;102665.81;10493019;28;20024;-75
2022/04/28 14:28:03;;;;;;;15.07;8.93;;;;;;;24.03;28.67;102666.38;10470535;28;20043;-76
2022/04/28 14:33:04;;;;;;;13.90;9.32;;;;;;;23.79;27.81;102656.03;10494319;28;20032;-75
2022/04/28 14:38:04;;;;;;;15.27;7.57;;;;;;;23.70;28.31;102663.00;10469399;28;20063;-76
2022/04/28 14:43:05;;;;;;;11.17;8.27;;;;;;;23.88;27.69;102665.16;10469682;28;20028;-76
2022/04/28 14:48:05;;;;;;;15.97;7.60;;;;;;;23.52;27.31;102658.16;10487236;28;20036;-76
2022/04/28 14:53:06;;;;;;;14.77;7.90;;;;;;;22.83;27.72;102668.97;10451989;28;20056;-76
2022/04/28 14:58:07;;;;;;;13.38;8.50;;;;;;;21.96;31.68;102671.94;10487216;28;20369;-77
2022/04/28 15:03:07;;;;;;;12.07;6.70;;;;;;;21.79;31.82;102670.53;10495155;28;20183;-75
2022/04/28 15:08:08;;;;;;;15.88;6.57;;;;;;;21.64;30.38;102677.22;10458330;28;20396;-76
2022/04/28 15:13:08;;;;;;;12.20;6.30;;;;;;;21.26;29.95;102676.88;10449236;28;20037;-75
2022/04/28 15:18:09;;;;;;;10.98;7.18;;;;;;;21.26;30.74;102666.22;10452187;28;20154;-75
2022/04/28 15:23:09;;;;;;;12.25;7.30;;;;;;;20.85;31.53;102665.78;10450209;28;20049;-76
2022/04/28 15:28:10;;;;;;;10.82;5.63;;;;;;;20.22;31.84;102663.59;10462841;28;20163;-76
2022/04/28 15:33:10;;;;;;;13.35;7.10;;;;;;;19.35;33.55;102659.41;10466453;28;20157;-76
2022/04/28 15:38:11;;;;;;;13.13;6.97;;;;;;;18.23;34.87;102651.16;10445076;28;20119;-75
2022/04/28 15:43:12;;;;;;;10.05;6.35;;;;;;;17.51;37.43;102660.22;10448111;28;20029;-76
2022/04/28 15:48:13;;;;;;;12.90;5.40;;;;;;;16.96;37.31;102651.38;10446207;28;20033;-76
2022/04/28 15:53:13;;;;;;;10.30;5.35;;;;;;;16.67;38.01;102658.75;10446211;28;20037;-76
2022/04/28 15:58:14;;;;;;;10.30;5.97;;;;;;;16.62;38.80;102652.31;10465356;28;20036;-75
2022/04/28 16:03:14;;;;;;;10.98;6.35;;;;;;;16.62;40.91;102649.66;10464934;28;20071;-75
2022/04/28 16:08:15;;;;;;;14.52;7.05;;;;;;;16.45;39.60;102655.00;10498610;28;20553;-76
2022/04/28 16:13:15;;;;;;;13.27;5.78;;;;;;;16.50;39.93;102649.91;10508500;28;20436;-75
2022/04/28 16:18:17;;;;;;;10.10;6.15;;;;;;;16.24;40.42;102647.75;10505295;28;20048;-75
2022/04/28 16:23:17;;;;;;;12.23;7.53;;;;;;;15.97;40.54;102647.16;10488527;28;20029;-75
2022/04/28 16:28:18;;;;;;;13.35;7.28;;;;;;;15.84;43.63;102643.84;10504645;28;20385;-75
2022/04/28 16:33:18;;;;;;;10.88;6.32;;;;;;;16.07;42.84;102643.31;10496520;28;20429;-75
2022/04/28 16:38:20;;;;;;;16.95;6.05;;;;;;;16.02;43.01;102644.78;10498683;28;20064;-75
2022/04/28 16:43:20;;;;;;;10.80;7.37;;;;;;;16.02;41.77;102655.34;10499276;28;20050;-75
2022/04/28 16:48:21;;;;;;;8.02;5.43;;;;;;;16.05;43.17;102647.59;10498250;28;20068;-76
2022/04/28 16:53:23;;;;;;;9.25;6.25;;;;;;;15.97;43.80;102661.31;10499589;28;20037;-76
2022/04/28 16:58:23;;;;;;;8.68;5.78;;;;;;;15.68;43.85;102657.94;10497892;28;20526;-76
2022/04/28 17:08:44;;;;;;;11.25;5.82;;;;;;;15.04;45.41;102655.19;10497904;28;20127;-76
2022/04/28 17:13:45;;;;;;;13.18;6.15;;;;;;;14.68;44.58;102655.75;10498560;28;20126;-75
2022/04/28 17:18:46;;;;;;;9.52;5.97;;;;;;;14.32;46.67;102663.25;10498592;28;20109;-76
2022/04/28 17:23:47;;;;;;;15.85;5.95;;;;;;;13.92;47.97;102662.59;10497884;28;20028;-75
2022/04/28 17:28:47;;;;;;;11.10;5.38;;;;;;;13.43;49.59;102667.38;10497499;28;20383;-75
2022/04/28 17:33:48;;;;;;;8.27;5.10;;;;;;;13.07;49.80;102672.91;10498354;28;20068;-76
2022/04/28 17:38:48;;;;;;;12.73;6.00;;;;;;;12.76;50.30;102676.09;10486629;28;20531;-75
2022/04/28 17:43:49;;;;;;;14.50;6.03;;;;;;;12.59;51.57;102674.97;10457136;28;20048;-75
2022/04/28 17:48:49;;;;;;;10.15;5.10;;;;;;;12.47;51.34;102681.19;10438792;28;20056;-75
2022/04/28 17:53:50;;;;;;;9.90;4.45;;;;;;;12.20;53.82;102677.56;10482403;28;20082;-74
2022/04/28 18:04:09;;;;;;;9.45;5.60;;;;;;;11.64;56.33;102685.81;10492762;28;20471;-74
2022/04/28 18:09:10;;;;;;;12.15;7.22;;;;;;;11.34;57.90;102690.66;10432561;28;20051;-74
2022/04/28 18:14:11;;;;;;;8.75;5.13;;;;;;;11.05;58.31;102692.00;10436614;28;20064;-74
2022/04/28 18:19:12;;;;;;;11.43;5.88;;;;;;;10.76;59.40;102681.13;10420797;28;20043;-74
2022/04/28 18:24:12;;;;;;;8.20;4.60;;;;;;;10.47;60.38;102682.44;10437226;28;20060;-74
2022/04/28 18:29:13;;;;;;;9.30;4.53;;;;;;;10.19;61.38;102685.50;10434809;28;20385;-74
2022/04/28 18:34:14;;;;;;;9.77;5.45;;;;;;;10.03;63.31;102692.94;10421176;28;20079;-74
2022/04/28 18:44:38;;;;;;;12.00;6.05;;;;;;;9.54;63.28;102706.50;10453281;28;20033;-74
2022/04/28 18:49:40;;;;;;;10.52;5.88;;;;;;;9.19;64.37;102704.53;10452508;28;20546;-74
2022/04/28 18:54:40;;;;;;;10.53;6.03;;;;;;;8.97;65.54;102707.97;10419366;28;20029;-74
2022/04/28 18:59:41;;;;;;;19.00;9.95;;;;;;;8.88;67.63;102707.19;10419518;28;20041;-74
2022/04/28 19:04:42;;;;;;;12.98;6.60;;;;;;;8.73;66.97;102715.56;10453697;28;20396;-74
2022/04/28 19:09:43;;;;;;;7.65;5.60;;;;;;;8.55;68.11;102720.13;10395602;28;20699;-74
2022/04/28 19:14:52;;;;;;;12.60;7.53;;;;;;;8.42;70.89;102725.94;10453501;28;20044;-74
2022/04/28 19:19:53;;;;;;;12.30;7.00;;;;;;;8.22;71.83;102726.84;10436258;28;20028;-74
2022/04/28 19:24:54;;;;;;;12.00;8.02;;;;;;;8.13;72.74;102732.16;10432029;28;20095;-74
2022/04/28 19:29:55;;;;;;;10.13;6.85;;;;;;;8.06;74.06;102732.41;10453654;28;20068;-74
2022/04/28 19:34:56;;;;;;;15.93;6.00;;;;;;;7.90;74.60;102740.59;10434518;28;20040;-74
2022/04/28 19:39:57;;;;;;;11.25;7.28;;;;;;;7.75;75.32;102740.13;10440522;28;20780;-74
2022/04/28 19:45:21;;;;;;;12.32;7.78;;;;;;;7.63;75.87;102745.16;10431296;28;20064;-73
2022/04/28 19:50:22;;;;;;;15.45;10.50;;;;;;;7.66;76.88;102747.13;10429239;28;20165;-74
2022/04/28 19:55:23;;;;;;;14.13;8.73;;;;;;;7.47;76.96;102748.06;10398701;28;20041;-74
2022/04/28 20:00:23;;;;;;;15.38;9.75;;;;;;;7.36;76.60;102752.31;10415757;28;20095;-74
2022/04/28 20:05:24;;;;;;;12.35;8.25;;;;;;;7.22;77.62;102753.66;10395566;28;20045;-74
2022/04/28 20:10:25;;;;;;;14.45;8.45;;;;;;;7.16;77.60;102750.47;10434879;28;20037;-74
2022/04/28 20:15:25;;;;;;;16.88;9.70;;;;;;;7.17;78.66;102757.50;10415815;28;20081;-74
2022/04/28 20:20:27;;;;;;;23.23;8.98;;;;;;;7.11;78.16;102752.69;10445678;28;20052;-74
2022/04/28 20:25:28;;;;;;;14.75;8.20;;;;;;;7.10;78.29;102750.84;10426035;28;20040;-74
2022/04/28 20:30:30;;;;;;;15.90;9.40;;;;;;;7.08;78.60;102749.78;10432639;28;20029;-74
2022/04/28 20:35:32;;;;;;;14.35;9.40;;;;;;;6.97;78.80;102747.88;10416818;28;20104;-74
2022/04/28 20:40:36;;;;;;;18.10;9.57;;;;;;;6.89;78.54;102741.94;10431340;28;20087;-74
2022/04/28 20:45:37;;;;;;;15.13;8.02;;;;;;;6.79;78.91;102744.47;10378949;28;20038;-74
2022/04/28 20:50:38;;;;;;;20.23;12.53;;;;;;;6.73;79.18;102745.72;10439388;28;20067;-75
2022/04/28 20:55:39;;;;;;;17.75;10.27;;;;;;;6.65;79.08;102751.00;10421645;28;20029;-73
2022/04/28 21:00:40;;;;;;;16.60;10.82;;;;;;;6.60;79.71;102750.56;10404178;28;20083;-74
2022/04/28 21:05:41;;;;;;;17.67;10.02;;;;;;;6.63;81.01;102747.34;10424370;28;20095;-74
2022/04/28 21:10:48;;;;;;;22.25;10.50;;;;;;;6.65;81.62;102744.09;10439898;28;20132;-74
2022/04/28 21:15:49;;;;;;;16.60;9.70;;;;;;;6.62;82.46;102741.22;10428149;28;20057;-75
2022/04/28 21:20:49;;;;;;;17.10;11.60;;;;;;;6.60;82.58;102742.75;10437526;28;20392;-74
2022/04/28 21:25:50;;;;;;;14.02;9.23;;;;;;;6.52;82.21;102741.13;10404239;28;20029;-74
2022/04/28 21:30:51;;;;;;;17.10;10.05;;;;;;;6.41;82.08;102730.63;10404186;28;20041;-74
2022/04/28 21:35:51;;;;;;;15.65;10.60;;;;;;;6.36;82.26;102730.97;10440289;28;20060;-74
2022/04/28 21:40:52;;;;;;;21.27;12.20;;;;;;;6.33;82.58;102734.16;10452839;28;20076;-74
2022/04/28 21:45:53;;;;;;;19.30;11.18;;;;;;;6.25;82.94;102733.47;10411296;28;20033;-74
2022/04/28 21:50:54;;;;;;;18.83;11.45;;;;;;;6.14;82.59;102741.91;10454565;28;20456;-74
2022/04/28 21:55:54;;;;;;;18.08;12.02;;;;;;;6.10;82.64;102742.41;10455868;28;20029;-74
2022/04/28 22:00:56;;;;;;;19.75;10.88;;;;;;;6.05;82.39;102747.13;10437423;28;20126;-74
2022/04/28 22:11:17;;;;;;;18.73;11.50;;;;;;;5.82;82.84;102738.00;10455624;28;20045;-74
2022/04/28 22:16:18;;;;;;;19.75;11.27;;;;;;;5.83;83.18;102737.22;10421628;28;20064;-75
2022/04/28 22:21:18;;;;;;;16.48;11.13;;;;;;;5.86;83.66;102742.72;10437612;28;20067;-74
2022/04/28 22:26:19;;;;;;;23.55;13.52;;;;;;;5.93;84.08;102752.06;10421391;28;20499;-74
2022/04/28 22:31:19;;;;;;;19.15;11.02;;;;;;;5.86;83.44;102755.72;10454769;28;20108;-74
2022/04/28 22:36:22;;;;;;;20.00;12.73;;;;;;;5.85;83.82;102758.19;10453200;28;20157;-74
2022/04/28 22:41:22;;;;;;;;;;;;;;;5.86;84.14;102760.91;10454545;28;20037;-74
2022/04/28 22:46:23;;;;;;;19.42;11.40;;;;;;;5.91;84.52;102760.44;10454259;28;19912;-74
2022/04/28 22:51:24;;;;;;;18.92;12.55;;;;;;;5.90;84.33;102766.41;10436280;28;20044;-74
2022/04/28 22:56:24;;;;;;;18.88;12.60;;;;;;;5.90;84.31;102762.16;10435816;28;20071;-74
2022/04/28 23:01:25;;;;;;;19.85;14.55;;;;;;;6.00;84.54;102767.50;10387716;28;20144;-74
2022/04/28 23:06:28;;;;;;;17.67;12.27;;;;;;;6.12;84.97;102766.84;10378613;28;20053;-75
2022/04/28 23:11:29;;;;;;;19.77;14.10;;;;;;;6.24;83.81;102764.50;10448718;28;20404;-74
2022/04/28 23:16:29;;;;;;;19.65;12.70;;;;;;;6.21;83.23;102751.22;10449611;28;20040;-74
2022/04/28 23:21:30;;;;;;;19.80;12.48;;;;;;;6.17;84.02;102753.50;10453529;28;20056;-75
2022/04/28 23:26:30;;;;;;;19.17;12.48;;;;;;;6.19;84.07;102763.16;10435968;28;20079;-74
2022/04/28 23:31:31;;;;;;;24.42;13.52;;;;;;;6.17;84.35;102760.41;10452096;28;20069;-74
2022/04/28 23:47:09;;;;;;;18.58;12.95;;;;;;;6.30;84.91;102758.22;10461671;28;20032;-74
2022/04/28 23:52:09;;;;;;;17.27;11.45;;;;;;;6.28;84.14;102769.22;10397950;28;20035;-74
2022/04/28 23:57:11;;;;;;;18.55;12.77;;;;;;;6.15;84.85;102764.56;10403606;28;20069;-75
